createdAt,value
2024-01-12T00:00:48.225Z,28.70
2024-01-12T00:01:50.710Z,22.85
2024-01-12T00:02:52.405Z,20.67
2024-01-12T00:03:54.005Z,25.70
2024-01-12T00:04:55.587Z,23.08
2024-01-12T00:05:57.466Z,21.17
2024-01-12T00:06:59.128Z,29.33
2024-01-12T00:08:00.762Z,22.02
2024-01-12T00:09:02.454Z,21.52
2024-01-12T00:11:10.000Z,22.33
2024-01-12T00:12:11.587Z,23.15
2024-01-12T00:13:13.130Z,28.00
2024-01-12T00:14:14.767Z,23.55
2024-01-12T00:15:16.534Z,23.88
2024-01-12T00:16:20.732Z,23.38
2024-01-12T00:17:22.404Z,25.30
2024-01-12T00:18:24.305Z,22.38
2024-01-12T00:19:25.992Z,19.08
2024-01-12T00:20:27.573Z,25.52
2024-01-12T00:21:29.174Z,24.73
2024-01-12T00:22:30.708Z,25.67
2024-01-12T00:23:32.361Z,23.10
2024-01-12T00:25:35.750Z,22.35
2024-01-12T00:26:37.354Z,24.63
2024-01-12T00:27:38.906Z,23.80
2024-01-12T00:28:40.492Z,25.95
2024-01-12T00:29:42.457Z,27.15
2024-01-12T00:30:44.129Z,23.95
2024-01-12T00:31:45.691Z,21.60
2024-01-12T00:32:47.295Z,28.08
2024-01-12T00:33:49.049Z,22.88
2024-01-12T00:34:50.752Z,21.70
2024-01-12T00:35:52.368Z,23.50
2024-01-12T00:36:53.958Z,23.83
2024-01-12T00:37:55.512Z,23.90
2024-01-12T00:38:57.197Z,24.85
2024-01-12T00:39:58.830Z,34.88
2024-01-12T00:41:00.348Z,20.13
2024-01-12T00:42:02.100Z,27.63
2024-01-12T00:43:03.753Z,25.52
2024-01-12T00:44:05.439Z,28.95
2024-01-12T00:45:07.344Z,22.27
2024-01-12T00:46:08.867Z,20.40
2024-01-12T00:47:10.439Z,29.20
2024-01-12T00:48:12.119Z,28.27
2024-01-12T00:49:14.006Z,25.60
2024-01-12T00:50:15.709Z,24.60
2024-01-12T00:52:20.397Z,27.13
2024-01-12T00:53:22.026Z,21.63
2024-01-12T00:54:23.640Z,24.98
2024-01-12T00:55:25.182Z,30.95
2024-01-12T00:56:26.885Z,27.23
2024-01-12T00:57:28.928Z,26.02
2024-01-12T00:58:30.541Z,22.92
2024-01-12T00:59:32.186Z,23.25
2024-01-12T01:00:33.802Z,22.73
2024-01-12T01:01:35.669Z,23.23
2024-01-12T01:02:37.388Z,27.30
2024-01-12T01:03:39.101Z,17.42
2024-01-12T01:04:40.760Z,22.20
2024-01-12T01:05:42.388Z,22.02
2024-01-12T01:06:44.043Z,25.30
2024-01-12T01:07:45.592Z,18.13
2024-01-12T01:08:47.277Z,29.58
2024-01-12T01:10:50.896Z,27.60
2024-01-12T01:11:52.855Z,23.08
2024-01-12T01:12:54.425Z,21.67
2024-01-12T01:13:56.010Z,23.92
2024-01-12T01:14:57.611Z,25.63
2024-01-12T01:15:59.297Z,27.58
2024-01-12T01:17:00.860Z,28.33
2024-01-12T01:18:02.551Z,24.40
2024-01-12T01:19:04.423Z,25.20
2024-01-12T01:20:06.923Z,24.77
2024-01-12T01:21:08.526Z,26.63
2024-01-12T01:22:10.153Z,24.05
2024-01-12T01:23:11.765Z,24.70
2024-01-12T01:24:13.398Z,28.02
2024-01-12T01:25:14.990Z,26.08
2024-01-12T01:26:16.592Z,23.80
2024-01-12T01:27:18.443Z,19.80
2024-01-12T01:29:22.020Z,24.40
2024-01-12T01:30:23.835Z,25.15
2024-01-12T01:31:25.495Z,22.67
2024-01-12T01:32:27.128Z,19.80
2024-01-12T01:33:28.897Z,23.33
2024-01-12T01:34:30.660Z,23.17
2024-01-12T01:35:32.603Z,25.65
2024-01-12T01:36:34.193Z,23.05
2024-01-12T01:37:35.750Z,23.17
2024-01-12T01:38:37.412Z,27.13
2024-01-12T01:39:39.007Z,21.70
2024-01-12T01:40:40.637Z,21.90
2024-01-12T01:41:42.329Z,22.98
2024-01-12T01:42:46.817Z,20.77
2024-01-12T01:43:48.367Z,21.77
2024-01-12T01:44:50.024Z,20.58
2024-01-12T01:45:51.624Z,19.38
2024-01-12T01:47:57.152Z,22.67
2024-01-12T01:48:58.912Z,25.63
2024-01-12T01:51:03.942Z,21.58
2024-01-12T01:53:07.949Z,22.45
2024-01-12T01:54:09.805Z,21.07
2024-01-12T01:55:12.845Z,22.30
2024-01-12T01:56:15.114Z,27.35
2024-01-12T01:57:16.976Z,26.85
2024-01-12T01:58:18.686Z,24.23
2024-01-12T01:59:20.333Z,28.55
2024-01-12T02:00:22.279Z,21.13
2024-01-12T02:01:24.181Z,26.60
2024-01-12T02:02:26.012Z,24.17
2024-01-12T02:03:29.457Z,24.85
2024-01-12T02:04:31.413Z,26.10
2024-01-12T02:05:35.319Z,22.60
2024-01-12T02:06:37.367Z,22.25
2024-01-12T02:07:39.021Z,19.00
2024-01-12T02:08:40.732Z,23.05
2024-01-12T02:09:42.556Z,18.50
2024-01-12T02:11:46.040Z,16.88
2024-01-12T02:12:47.666Z,22.55
2024-01-12T02:13:49.261Z,45.90
2024-01-12T02:14:50.935Z,77.33
2024-01-12T02:15:52.729Z,45.10
2024-01-12T02:16:54.371Z,32.15
2024-01-12T02:18:24.055Z,29.88
2024-01-12T02:19:25.768Z,20.15
2024-01-12T02:20:27.443Z,22.75
2024-01-12T02:21:29.591Z,20.30
2024-01-12T02:22:31.249Z,25.35
2024-01-12T02:23:32.807Z,20.77
2024-01-12T02:24:34.390Z,30.55
2024-01-12T02:25:35.975Z,20.63
2024-01-12T02:26:37.704Z,20.02
2024-01-12T02:27:39.564Z,21.02
2024-01-12T02:28:41.506Z,21.23
2024-01-12T02:29:43.505Z,26.38
2024-01-12T02:30:45.432Z,23.40
2024-01-12T02:31:47.834Z,21.65
2024-01-12T02:32:49.515Z,22.65
2024-01-12T02:34:53.086Z,24.50
2024-01-12T02:35:54.780Z,26.13
2024-01-12T02:36:56.447Z,21.17
2024-01-12T02:38:59.784Z,19.48
2024-01-12T02:40:01.404Z,20.17
2024-01-12T02:41:02.963Z,24.17
2024-01-12T02:42:04.725Z,23.35
2024-01-12T02:44:09.064Z,18.23
2024-01-12T02:45:10.762Z,19.65
2024-01-12T02:46:12.342Z,23.73
2024-01-12T02:47:14.094Z,18.70
2024-01-12T02:49:17.705Z,21.80
2024-01-12T02:50:19.367Z,26.55
2024-01-12T02:51:20.963Z,20.75
2024-01-12T02:53:24.539Z,21.65
2024-01-12T02:54:26.130Z,20.13
2024-01-12T02:55:27.681Z,21.55
2024-01-12T02:56:29.808Z,21.53
2024-01-12T02:57:31.875Z,19.80
2024-01-12T02:58:33.595Z,20.92
2024-01-12T02:59:35.232Z,21.70
2024-01-12T03:00:36.844Z,21.88
2024-01-12T03:01:38.501Z,26.23
2024-01-12T03:02:40.182Z,19.95
2024-01-12T03:04:43.727Z,20.08
2024-01-12T03:05:45.409Z,20.13
2024-01-12T03:07:48.834Z,22.73
2024-01-12T03:08:50.442Z,18.90
2024-01-12T03:10:53.849Z,19.88
2024-01-12T03:55:19.718Z,14.82
2024-01-12T03:56:21.371Z,17.67
2024-01-12T03:57:23.083Z,22.08
2024-01-12T03:58:24.632Z,22.50
2024-01-12T03:59:26.233Z,21.35
2024-01-12T04:00:27.875Z,25.13
2024-01-12T04:01:29.432Z,19.13
2024-01-12T04:02:31.273Z,23.65
2024-01-12T04:03:32.846Z,25.57
2024-01-12T04:04:34.384Z,24.20
2024-01-12T04:05:36.154Z,21.00
2024-01-12T04:06:38.129Z,21.58
2024-01-12T04:07:39.781Z,21.33
2024-01-12T04:08:41.431Z,22.23
2024-01-12T04:09:42.988Z,22.10
2024-01-12T04:10:44.716Z,23.15
2024-01-12T04:11:46.358Z,20.17
2024-01-12T04:12:48.002Z,21.88
2024-01-12T04:13:49.575Z,25.67
2024-01-12T04:14:51.193Z,19.65
2024-01-12T04:15:52.831Z,20.90
2024-01-12T04:16:54.383Z,22.55
2024-01-12T04:17:56.030Z,23.10
2024-01-12T04:18:57.768Z,22.02
2024-01-12T04:19:59.714Z,23.80
2024-01-12T04:21:01.366Z,19.75
2024-01-12T04:22:03.099Z,25.92
2024-01-12T04:24:15.280Z,19.10
2024-01-12T04:25:16.941Z,24.80
2024-01-12T04:26:18.674Z,22.65
2024-01-12T04:27:20.334Z,19.58
2024-01-12T04:28:21.971Z,18.80
2024-01-12T04:29:23.545Z,21.10
2024-01-12T04:30:25.174Z,28.05
2024-01-12T04:31:26.853Z,22.02
2024-01-12T04:32:28.463Z,26.98
2024-01-12T04:33:30.836Z,23.45
2024-01-12T04:34:32.630Z,17.53
2024-01-12T04:35:34.237Z,21.17
2024-01-12T04:36:35.960Z,14.13
2024-01-12T04:37:37.519Z,19.08
2024-01-12T04:38:39.128Z,20.95
2024-01-12T04:39:43.520Z,20.05
2024-01-12T04:40:45.184Z,21.25
2024-01-12T04:41:46.785Z,18.73
2024-01-12T04:42:48.362Z,19.90
2024-01-12T04:43:49.902Z,19.67
2024-01-12T04:44:51.502Z,21.07
2024-01-12T04:45:53.148Z,19.98
2024-01-12T04:46:54.793Z,21.17
2024-01-12T04:47:57.001Z,18.50
2024-01-12T04:48:58.703Z,23.48
2024-01-12T04:50:00.609Z,21.10
2024-01-12T04:51:02.364Z,19.05
2024-01-12T04:52:05.167Z,19.10
2024-01-12T04:53:07.075Z,21.85
2024-01-12T04:54:08.838Z,24.63
2024-01-12T04:55:10.426Z,21.07
2024-01-12T04:56:11.963Z,22.98
2024-01-12T04:57:13.571Z,17.33
2024-01-12T04:58:15.075Z,22.27
2024-01-12T04:59:16.664Z,20.50
2024-01-12T05:00:19.258Z,23.27
2024-01-12T05:01:20.915Z,27.95
2024-01-12T05:02:22.695Z,26.60
2024-01-12T05:03:24.606Z,23.23
2024-01-12T05:04:26.320Z,23.73
2024-01-12T05:05:28.062Z,32.77
2024-01-12T05:06:29.846Z,18.95
2024-01-12T05:07:31.687Z,25.15
2024-01-12T05:08:33.279Z,21.73
2024-01-12T05:09:34.903Z,21.00
2024-01-12T05:10:36.441Z,27.02
2024-01-12T05:11:38.068Z,23.52
2024-01-12T05:12:39.729Z,20.83
2024-01-12T05:13:41.552Z,23.38
2024-01-12T05:14:43.890Z,19.88
2024-01-12T05:15:47.331Z,20.27
2024-01-12T05:16:48.883Z,21.73
2024-01-12T05:17:50.611Z,21.33
2024-01-12T05:18:52.384Z,24.05
2024-01-12T05:19:54.130Z,29.25
2024-01-12T05:20:55.768Z,24.23
2024-01-12T05:22:59.202Z,25.90
2024-01-12T05:24:00.820Z,19.85
2024-01-12T05:25:03.209Z,18.48
2024-01-12T05:26:04.797Z,17.10
2024-01-12T05:27:06.661Z,21.63
2024-01-12T05:28:09.719Z,21.58
2024-01-12T05:29:11.298Z,23.77
2024-01-12T05:30:13.408Z,24.95
2024-01-12T05:31:16.005Z,20.63
2024-01-12T05:32:17.674Z,18.33
2024-01-12T05:33:19.394Z,17.63
2024-01-12T05:34:21.208Z,20.75
2024-01-12T05:35:22.837Z,18.88
2024-01-12T05:36:24.466Z,20.10
2024-01-12T05:37:26.049Z,22.30
2024-01-12T05:38:27.798Z,15.30
2024-01-12T05:39:29.343Z,20.77
2024-01-12T05:40:30.965Z,20.23
2024-01-12T05:41:33.091Z,22.55
2024-01-12T05:42:35.144Z,19.55
2024-01-12T05:43:37.537Z,23.45
2024-01-12T05:44:39.309Z,21.75
2024-01-12T05:45:41.091Z,19.50
2024-01-12T05:47:45.056Z,33.58
2024-01-12T05:48:47.542Z,24.92
2024-01-12T05:49:49.554Z,22.92
2024-01-12T05:50:51.515Z,22.08
2024-01-12T05:52:55.489Z,20.50
2024-01-12T05:53:57.756Z,29.42
2024-01-12T05:54:59.484Z,29.58
2024-01-12T05:56:01.260Z,25.35
2024-01-12T05:57:03.201Z,20.60
2024-01-12T05:58:05.124Z,21.65
2024-01-12T05:59:07.056Z,25.77
2024-01-12T06:00:09.691Z,20.55
2024-01-12T06:01:13.216Z,20.13
2024-01-12T06:02:15.153Z,20.75
2024-01-12T06:03:17.126Z,22.83
2024-01-12T06:04:18.823Z,20.20
2024-01-12T06:05:20.537Z,18.55
2024-01-12T06:06:22.230Z,16.70
2024-01-12T06:07:23.991Z,17.20
2024-01-12T06:08:25.765Z,18.50
2024-01-12T06:09:27.370Z,16.45
2024-01-12T06:10:28.916Z,16.95
2024-01-12T06:11:30.559Z,18.63
2024-01-12T06:13:33.937Z,17.52
2024-01-12T06:14:35.586Z,21.40
2024-01-12T06:15:37.411Z,20.08
2024-01-12T06:16:38.929Z,11.68
2024-01-12T06:17:40.693Z,21.03
2024-01-12T06:18:42.535Z,20.23
2024-01-12T06:19:44.305Z,19.90
2024-01-12T06:20:45.873Z,19.85
2024-01-12T06:21:47.460Z,19.58
2024-01-12T06:22:49.022Z,19.20
2024-01-12T06:23:50.572Z,23.63
2024-01-12T06:24:52.179Z,21.08
2024-01-12T06:25:53.754Z,26.23
2024-01-12T06:26:55.353Z,22.52
2024-01-12T06:27:56.930Z,19.13
2024-01-12T06:28:58.490Z,27.55
2024-01-12T06:30:00.297Z,32.03
2024-01-12T06:31:02.062Z,22.95
2024-01-12T06:32:03.954Z,20.33
2024-01-12T06:33:06.048Z,22.27
2024-01-12T06:34:07.815Z,21.35
2024-01-12T06:35:10.230Z,22.15
2024-01-12T06:36:12.045Z,20.95
2024-01-12T06:37:13.787Z,24.60
2024-01-12T06:38:15.464Z,23.43
2024-01-12T06:39:17.338Z,28.77
2024-01-12T06:40:19.225Z,26.30
2024-01-12T06:41:21.000Z,23.80
2024-01-12T06:42:22.754Z,33.17
2024-01-12T06:43:24.424Z,27.60
2024-01-12T06:44:26.046Z,32.83
2024-01-12T06:45:27.943Z,22.73
2024-01-12T06:46:29.750Z,25.92
2024-01-12T06:47:31.556Z,23.10
2024-01-12T06:48:33.263Z,22.03
2024-01-12T06:49:35.297Z,23.92
2024-01-12T06:50:37.309Z,23.50
2024-01-12T06:51:39.032Z,22.35
2024-01-12T06:52:40.604Z,21.35
2024-01-12T06:53:42.223Z,21.15
2024-01-12T06:54:44.501Z,22.75
2024-01-12T06:55:46.452Z,17.00
2024-01-12T06:56:48.197Z,22.70
2024-01-12T06:57:49.738Z,23.58
2024-01-12T06:58:51.564Z,24.20
2024-01-12T06:59:53.307Z,18.23
2024-01-12T07:44:59.013Z,13.07
2024-01-12T07:46:00.832Z,15.50
2024-01-12T07:47:02.817Z,13.98
2024-01-12T07:48:05.049Z,20.70
2024-01-12T07:49:07.189Z,22.50
2024-01-12T07:50:09.302Z,22.95
2024-01-12T07:51:11.164Z,15.90
2024-01-12T07:52:17.085Z,23.70
2024-01-12T07:53:21.016Z,35.13
2024-01-12T07:54:22.852Z,25.00
2024-01-12T07:55:24.652Z,23.67
2024-01-12T07:56:26.470Z,24.03
2024-01-12T07:57:28.228Z,23.65
2024-01-12T07:58:32.936Z,21.02
2024-01-12T07:59:35.082Z,18.20
2024-01-12T08:00:36.958Z,18.27
2024-01-12T08:01:38.752Z,19.45
2024-01-12T08:02:40.534Z,19.42
2024-01-12T08:03:42.711Z,20.80
2024-01-12T08:04:44.484Z,17.88
2024-01-12T08:05:46.307Z,17.33
2024-01-12T08:06:48.477Z,19.20
2024-01-12T08:07:50.749Z,19.67
2024-01-12T08:08:52.555Z,26.70
2024-01-12T08:09:54.265Z,21.95
2024-01-12T08:10:56.109Z,22.05
2024-01-12T08:11:57.795Z,23.33
2024-01-12T08:12:59.627Z,21.33
2024-01-12T08:14:01.361Z,25.10
2024-01-12T08:15:03.317Z,25.65
2024-01-12T08:16:05.324Z,23.20
2024-01-12T08:17:07.904Z,16.40
2024-01-12T08:18:09.755Z,19.60
2024-01-12T08:19:11.693Z,20.58
2024-01-12T08:20:13.660Z,19.50
2024-01-12T08:21:15.648Z,20.05
2024-01-12T08:22:17.409Z,22.95
2024-01-12T08:23:19.256Z,25.92
2024-01-12T08:24:21.065Z,28.08
2024-01-12T08:25:22.902Z,27.05
2024-01-12T08:26:24.785Z,25.55
2024-01-12T08:27:26.606Z,23.97
2024-01-12T08:28:28.288Z,18.73
2024-01-12T08:29:30.152Z,24.73
2024-01-12T08:30:32.003Z,20.15
2024-01-12T09:15:36.746Z,15.30
2024-01-12T09:16:38.726Z,22.70
2024-01-12T09:17:40.646Z,18.42
2024-01-12T09:18:45.467Z,25.67
2024-01-12T09:19:47.336Z,26.00
2024-01-12T09:20:49.240Z,19.63
2024-01-12T09:21:51.033Z,25.48
2024-01-12T09:22:52.874Z,23.25
2024-01-12T09:23:54.711Z,25.23
2024-01-12T09:24:56.481Z,21.03
2024-01-12T09:25:58.213Z,26.85
2024-01-12T09:27:00.122Z,23.58
2024-01-12T09:28:01.922Z,22.70
2024-01-12T09:29:03.625Z,24.50
2024-01-12T09:30:05.820Z,20.35
2024-01-12T09:31:07.940Z,21.95
2024-01-12T09:32:09.999Z,30.13
2024-01-12T09:33:11.862Z,28.75
2024-01-12T09:34:13.976Z,29.17
2024-01-12T09:35:16.584Z,28.93
2024-01-12T09:36:18.540Z,23.75
2024-01-12T09:37:20.347Z,28.27
2024-01-12T09:38:22.142Z,19.85
2024-01-12T09:39:25.306Z,30.17
2024-01-12T09:40:27.705Z,25.05
2024-01-12T09:41:37.466Z,27.65
2024-01-12T09:42:42.673Z,28.85
2024-01-12T10:27:38.046Z,26.60
2024-01-12T10:28:39.791Z,25.17
2024-01-12T10:29:41.581Z,23.05
2024-01-12T10:30:43.434Z,23.10
2024-01-12T10:31:46.382Z,25.42
2024-01-12T10:32:51.828Z,27.90
2024-01-12T10:33:54.191Z,27.27
2024-01-12T10:34:56.118Z,23.83
2024-01-12T12:01:51.390Z,25.35
2024-01-12T12:02:56.874Z,21.60
2024-01-12T12:47:55.238Z,22.38
2024-01-12T12:48:57.150Z,21.75
2024-01-12T12:49:59.254Z,24.90
2024-01-12T12:51:01.011Z,37.35
2024-01-12T12:52:02.821Z,26.58
2024-01-12T12:53:04.792Z,25.40
2024-01-12T12:54:06.633Z,23.88
2024-01-12T12:55:09.031Z,28.77
2024-01-12T12:56:10.806Z,34.55
2024-01-12T12:57:12.766Z,30.02
2024-01-12T12:58:15.060Z,23.83
2024-01-12T12:59:16.751Z,29.95
2024-01-12T13:00:18.558Z,30.38
2024-01-12T13:01:20.296Z,30.90
2024-01-12T13:02:22.130Z,27.42
2024-01-12T13:03:24.061Z,28.47
2024-01-12T13:04:25.907Z,37.75
2024-01-12T13:05:27.820Z,30.58
2024-01-12T13:06:29.686Z,37.13
2024-01-12T13:07:31.544Z,32.40
2024-01-12T13:08:33.364Z,38.47
2024-01-12T13:09:35.063Z,32.70
2024-01-12T13:10:36.992Z,33.15
2024-01-12T13:11:38.822Z,33.05
2024-01-12T13:12:40.718Z,31.73
2024-01-12T13:13:42.551Z,34.40
2024-01-12T13:14:44.270Z,35.63
2024-01-12T13:15:46.042Z,36.53
2024-01-12T13:16:47.849Z,33.03
2024-01-12T13:17:49.715Z,42.53
2024-01-12T14:02:53.121Z,23.83
2024-01-12T14:03:55.043Z,18.17
2024-01-12T14:05:05.619Z,28.25
2024-01-12T14:06:16.564Z,26.88
2024-01-12T14:07:18.713Z,27.83
2024-01-12T14:09:22.984Z,27.08
2024-01-12T14:10:25.057Z,32.45
2024-01-12T14:11:27.774Z,32.33
2024-01-12T14:12:29.588Z,33.80
2024-01-12T14:13:31.509Z,35.13
2024-01-12T14:14:33.402Z,44.42
2024-01-12T14:15:35.204Z,36.50
2024-01-12T14:16:37.088Z,32.65
2024-01-12T14:17:39.034Z,31.65
2024-01-12T14:18:41.177Z,25.58
2024-01-12T14:19:43.118Z,32.00
2024-01-12T14:20:45.052Z,38.92
2024-01-12T14:21:46.950Z,31.37
2024-01-12T14:22:48.739Z,34.25
2024-01-12T14:23:50.591Z,32.45
2024-01-12T14:24:52.501Z,34.33
2024-01-12T14:25:54.335Z,33.20
2024-01-12T14:26:56.317Z,35.03
2024-01-12T14:27:58.330Z,36.83
2024-01-12T14:29:00.142Z,47.67
2024-01-12T14:30:02.124Z,29.77
2024-01-12T14:31:04.427Z,33.60
2024-01-12T14:32:06.250Z,30.73
2024-01-12T14:33:08.582Z,28.08
2024-01-12T14:34:10.655Z,37.13
2024-01-12T14:35:12.723Z,33.40
2024-01-12T14:36:15.074Z,35.40
2024-01-12T14:37:16.968Z,29.88
2024-01-12T14:38:18.763Z,35.70
2024-01-12T14:39:20.666Z,37.10
2024-01-12T14:40:22.472Z,33.65
2024-01-12T14:41:24.487Z,31.55
2024-01-12T14:42:26.283Z,32.07
2024-01-12T14:43:28.084Z,39.17
2024-01-12T14:44:29.932Z,36.85
2024-01-12T14:45:31.761Z,35.50
2024-01-12T14:46:34.188Z,34.67
2024-01-12T14:47:37.227Z,37.05
2024-01-12T14:48:39.524Z,35.35
2024-01-12T14:49:42.066Z,34.05
2024-01-12T14:50:45.905Z,37.92
2024-01-12T14:51:47.674Z,33.88
2024-01-12T14:52:49.608Z,40.33
2024-01-12T14:53:51.388Z,34.15
2024-01-12T14:54:53.319Z,37.38
2024-01-12T14:55:55.146Z,43.15
2024-01-12T14:56:57.418Z,38.25
2024-01-12T14:57:59.185Z,31.67
2024-01-12T14:59:01.032Z,39.80
2024-01-12T15:00:06.178Z,42.78
2024-01-12T15:01:09.263Z,39.88
2024-01-12T15:02:11.333Z,40.20
2024-01-12T15:03:13.198Z,35.37
2024-01-12T15:04:19.203Z,34.92
2024-01-12T15:05:21.776Z,30.27
2024-01-12T15:06:23.708Z,30.95
2024-01-12T15:07:28.172Z,35.25
2024-01-12T15:08:30.744Z,38.85
2024-01-12T15:09:32.577Z,32.90
2024-01-12T15:10:34.699Z,32.97
2024-01-12T15:11:36.497Z,35.45
2024-01-12T15:12:38.751Z,37.30
2024-01-12T15:13:40.750Z,28.70
2024-01-12T15:14:42.861Z,35.65
2024-01-12T15:15:44.859Z,33.90
2024-01-12T15:16:48.196Z,43.40
2024-01-12T15:17:50.060Z,38.42
2024-01-12T15:18:52.050Z,34.53
2024-01-12T15:19:53.790Z,37.17
2024-01-12T15:20:55.907Z,34.78
2024-01-12T15:21:57.614Z,30.30
2024-01-12T15:23:05.205Z,32.45
2024-01-12T15:24:09.156Z,34.20
2024-01-12T15:25:11.014Z,32.80
2024-01-12T16:09:57.955Z,28.20
2024-01-12T16:10:59.513Z,33.73
2024-01-12T16:12:01.099Z,35.08
2024-01-12T16:13:02.967Z,33.50
2024-01-12T16:14:04.729Z,32.70
2024-01-12T16:15:06.718Z,29.48
2024-01-12T16:16:08.555Z,31.52
2024-01-12T16:17:10.272Z,30.77
2024-01-12T16:18:11.988Z,41.05
2024-01-12T16:19:15.760Z,39.17
2024-01-12T16:20:18.055Z,32.53
2024-01-12T16:21:33.939Z,38.67
2024-01-12T16:22:35.828Z,36.10
2024-01-12T16:23:39.433Z,37.83
2024-01-12T16:24:41.088Z,34.40
2024-01-12T16:25:42.661Z,31.13
2024-01-12T16:26:44.301Z,39.15
2024-01-12T16:27:46.168Z,37.90
2024-01-12T16:28:47.926Z,34.97
2024-01-12T16:29:49.554Z,38.35
2024-01-12T16:30:51.652Z,38.35
2024-01-12T16:31:53.541Z,43.47
2024-01-12T16:32:55.181Z,41.60
2024-01-12T16:33:57.118Z,39.17
2024-01-12T16:34:58.699Z,37.45
2024-01-12T16:36:00.418Z,33.88
2024-01-12T16:37:02.023Z,39.60
2024-01-12T16:38:03.575Z,39.08
2024-01-12T16:39:05.372Z,40.38
2024-01-12T16:40:07.398Z,41.13
2024-01-12T16:41:09.249Z,39.58
2024-01-12T16:42:11.295Z,39.67
2024-01-12T16:43:13.084Z,41.13
2024-01-12T16:44:15.026Z,39.35
2024-01-12T16:45:16.817Z,43.90
2024-01-12T16:46:18.698Z,33.47
2024-01-12T16:47:20.551Z,33.40
2024-01-12T16:48:22.475Z,32.17
2024-01-12T16:49:24.377Z,38.72
2024-01-12T16:50:26.260Z,42.75
2024-01-12T16:51:28.150Z,36.67
2024-01-12T16:52:29.957Z,35.60
2024-01-12T16:53:31.789Z,39.67
2024-01-12T16:54:33.613Z,34.45
2024-01-12T16:55:35.524Z,40.53
2024-01-12T16:56:40.750Z,37.03
2024-01-12T16:57:42.637Z,36.95
2024-01-12T16:58:44.442Z,41.38
2024-01-12T16:59:46.393Z,34.05
2024-01-12T17:00:48.263Z,44.53
2024-01-12T17:01:50.156Z,35.35
2024-01-12T17:02:51.865Z,34.67
2024-01-12T17:03:53.793Z,40.33
2024-01-12T17:04:55.687Z,36.00
2024-01-12T17:05:57.625Z,40.42
2024-01-12T17:06:59.584Z,43.70
2024-01-12T17:08:01.422Z,31.38
2024-01-12T17:09:03.191Z,37.47
2024-01-12T17:10:05.189Z,37.83
2024-01-12T17:11:07.282Z,34.92
2024-01-12T17:12:09.242Z,36.88
2024-01-12T17:13:11.064Z,34.97
2024-01-12T17:14:12.645Z,34.42
2024-01-12T17:15:17.458Z,42.30
2024-01-12T17:16:19.152Z,40.35
2024-01-12T17:17:26.330Z,32.70
2024-01-12T17:18:33.303Z,39.72
2024-01-12T17:19:35.542Z,35.60
2024-01-12T17:20:37.346Z,29.83
2024-01-12T17:21:39.165Z,38.15
2024-01-12T17:22:40.886Z,37.00
2024-01-12T17:23:42.478Z,36.90
2024-01-12T17:24:44.054Z,36.63
2024-01-12T17:25:45.627Z,39.58
2024-01-12T17:26:47.387Z,39.83
2024-01-12T17:27:49.248Z,38.25
2024-01-12T17:28:51.081Z,34.30
2024-01-12T17:29:52.836Z,42.53
2024-01-12T17:30:54.629Z,48.15
2024-01-12T17:31:56.510Z,38.53
2024-01-12T17:32:58.454Z,45.30
2024-01-12T17:34:00.519Z,38.20
2024-01-12T17:35:02.507Z,36.83
2024-01-12T17:36:04.491Z,35.88
2024-01-12T17:37:06.608Z,52.70
2024-01-12T17:38:08.393Z,65.05
2024-01-12T17:39:10.429Z,74.00
2024-01-12T17:40:12.571Z,90.63
2024-01-12T17:41:14.367Z,67.80
2024-01-12T17:42:16.116Z,62.60
2024-01-12T17:43:18.006Z,60.25
2024-01-12T17:44:19.848Z,54.23
2024-01-12T17:45:22.614Z,53.97
2024-01-12T17:46:25.283Z,66.97
2024-01-12T17:47:27.095Z,56.88
2024-01-12T17:48:29.219Z,55.65
2024-01-12T17:49:31.622Z,56.25
2024-01-12T17:50:35.522Z,51.50
2024-01-12T17:51:39.726Z,50.67
2024-01-12T17:52:41.461Z,47.47
2024-01-12T17:53:43.566Z,44.38
2024-01-12T17:54:45.433Z,43.93
2024-01-12T17:55:47.186Z,54.25
2024-01-12T17:56:49.533Z,42.97
2024-01-12T17:57:51.462Z,55.10
2024-01-12T17:58:53.303Z,49.45
2024-01-12T17:59:54.950Z,49.70
2024-01-12T18:00:56.709Z,44.25
2024-01-12T18:01:58.627Z,51.83
2024-01-12T18:03:00.648Z,49.83
2024-01-12T18:04:02.560Z,53.95
2024-01-12T18:05:04.489Z,49.87
2024-01-12T18:06:06.479Z,54.25
2024-01-12T18:07:08.431Z,51.65
2024-01-12T18:08:10.225Z,56.28
2024-01-12T18:09:11.869Z,51.47
2024-01-12T18:10:13.766Z,48.50
2024-01-12T18:11:20.170Z,48.20
2024-01-12T18:12:21.732Z,48.38
2024-01-12T18:13:23.465Z,42.20
2024-01-12T18:14:25.317Z,48.63
2024-01-12T18:15:27.133Z,36.63
2024-01-12T18:16:28.851Z,40.60
2024-01-12T18:17:30.699Z,44.15
2024-01-12T18:18:32.772Z,41.08
2024-01-12T18:19:34.821Z,43.50
2024-01-12T18:20:36.636Z,50.53
2024-01-12T18:22:40.260Z,41.97
2024-01-12T18:23:42.096Z,37.63
2024-01-12T18:24:43.993Z,38.97
2024-01-12T18:25:45.820Z,45.33
2024-01-12T18:26:47.620Z,42.20
2024-01-12T18:27:49.187Z,41.72
2024-01-12T18:28:50.953Z,46.70
2024-01-12T18:29:52.650Z,52.58
2024-01-12T18:30:54.282Z,43.58
2024-01-12T18:31:56.042Z,46.70
2024-01-12T18:32:58.055Z,57.20
2024-01-12T18:34:00.064Z,42.63
2024-01-12T18:35:01.963Z,49.72
2024-01-12T18:36:03.906Z,44.63
2024-01-12T18:37:05.613Z,40.72
2024-01-12T18:38:07.157Z,49.47
2024-01-12T18:39:09.056Z,42.97
2024-01-12T18:40:11.168Z,49.47
2024-01-12T18:41:12.920Z,37.78
2024-01-12T18:42:14.478Z,40.53
2024-01-12T18:43:16.038Z,45.97
2024-01-12T18:44:17.849Z,42.33
2024-01-12T18:45:19.869Z,46.13
2024-01-12T18:46:21.611Z,48.03
2024-01-12T18:47:23.562Z,43.33
2024-01-12T18:48:25.533Z,37.63
2024-01-12T18:49:27.242Z,41.72
2024-01-12T18:50:29.168Z,47.70
2024-01-12T18:51:31.012Z,39.50
2024-01-12T18:52:32.859Z,42.08
2024-01-12T18:53:34.765Z,32.30
2024-01-12T18:54:36.600Z,34.85
2024-01-12T18:55:38.229Z,35.83
2024-01-12T18:56:40.032Z,33.03
2024-01-12T18:57:41.865Z,40.03
2024-01-12T18:58:43.384Z,37.40
2024-01-12T18:59:45.056Z,37.72
2024-01-12T19:00:46.748Z,34.33
2024-01-12T19:01:48.345Z,38.05
2024-01-12T19:02:49.879Z,33.83
2024-01-12T19:03:51.499Z,40.75
2024-01-12T19:04:53.099Z,37.38
2024-01-12T19:05:54.976Z,35.40
2024-01-12T19:06:56.626Z,39.33
2024-01-12T19:07:58.166Z,39.17
2024-01-12T19:08:59.790Z,36.33
2024-01-12T19:10:01.385Z,34.20
2024-01-12T19:11:02.980Z,36.60
2024-01-12T19:12:04.669Z,37.33
2024-01-12T19:13:06.270Z,37.85
2024-01-12T19:14:07.825Z,32.05
2024-01-12T19:15:09.716Z,40.95
2024-01-12T19:16:11.435Z,31.17
2024-01-12T19:17:12.966Z,43.23
2024-01-12T19:18:14.710Z,36.25
2024-01-12T19:19:17.012Z,37.33
2024-01-12T19:20:18.782Z,43.22
2024-01-12T19:21:20.547Z,37.55
2024-01-12T19:22:22.072Z,41.03
2024-01-12T19:23:23.635Z,38.72
2024-01-12T19:24:25.432Z,38.13
2024-01-12T19:25:27.022Z,44.38
2024-01-12T19:26:28.647Z,44.95
2024-01-12T19:27:30.233Z,46.13
2024-01-12T19:28:31.847Z,44.80
2024-01-12T19:29:33.398Z,49.45
2024-01-12T19:30:35.256Z,44.85
2024-01-12T19:31:36.891Z,46.97
2024-01-12T19:32:38.618Z,43.53
2024-01-12T19:33:40.478Z,43.13
2024-01-12T19:34:42.567Z,41.38
2024-01-12T19:35:46.680Z,41.97
2024-01-12T19:36:48.856Z,37.28
2024-01-12T19:37:50.493Z,48.10
2024-01-12T19:38:52.202Z,47.78
2024-01-12T19:39:54.003Z,68.68
2024-01-12T19:40:55.548Z,60.50
2024-01-12T21:07:56.306Z,31.23
2024-01-12T21:08:58.852Z,34.33
2024-01-12T21:10:00.819Z,38.38
2024-01-12T21:11:02.626Z,43.27
2024-01-12T21:12:04.614Z,41.05
2024-01-12T21:13:06.583Z,42.33
2024-01-12T21:14:08.328Z,50.58
2024-01-12T21:15:10.442Z,41.80
2024-01-12T21:16:12.373Z,41.13
2024-01-12T21:17:14.134Z,41.95
2024-01-12T21:18:16.092Z,39.60
2024-01-12T21:19:18.278Z,30.40
2024-01-12T21:20:20.235Z,39.38
2024-01-12T21:21:22.101Z,40.17
2024-01-12T21:22:30.010Z,40.90
2024-01-12T21:23:38.418Z,38.60
2024-01-12T21:24:40.229Z,31.95
2024-01-12T21:25:42.005Z,35.58
2024-01-12T21:26:43.875Z,34.38
2024-01-12T21:27:45.686Z,34.83
2024-01-12T21:28:47.506Z,32.47
2024-01-12T21:29:49.239Z,36.08
2024-01-12T21:30:50.844Z,36.47
2024-01-12T21:31:52.522Z,37.50
2024-01-12T21:32:54.257Z,34.97
2024-01-12T21:33:56.347Z,36.70
2024-01-12T21:34:58.321Z,44.55
2024-01-12T21:36:00.035Z,28.55
2024-01-12T21:37:01.849Z,33.03
2024-01-12T21:38:03.670Z,30.17
2024-01-12T21:39:05.522Z,39.42
2024-01-12T21:40:07.494Z,30.35
2024-01-12T21:41:09.344Z,31.52
2024-01-12T21:42:11.254Z,34.97
2024-01-12T21:43:13.252Z,34.97